Time;durP1;ratioP1;P1;durP2;ratioP2;P2;SDS_P1;SDS_P2;PMS_P1;PMS_P2;Temp;Humidity;BMP_temperature;BMP_pressure;BME280_temperature;BME280_humidity;BME280_pressure;Samples;Min_cycle;Max_cycle;Signal;HPM_P1;HPM_P2
2023/09/22 00:02:04;;;;;;;;;;;18.50;99.90;;;;;;5054909;28;19966;-91
2023/09/22 00:04:30;;;;;;;;;;;18.40;99.90;;;;;;5055003;28;20308;-91
2023/09/22 00:06:56;;;;;;;;;;;18.40;99.90;;;;;;5057732;28;20349;-91
2023/09/22 00:09:22;;;;;;;;;;;18.40;99.90;;;;;;5058853;28;20370;-91
2023/09/22 00:11:48;;;;;;;;;;;18.30;99.90;;;;;;5058823;28;19905;-91
2023/09/22 00:14:14;;;;;;;;;;;18.20;99.90;;;;;;5058667;28;19920;-91
2023/09/22 00:20:15;;;;;;;;;;;18.10;99.90;;;;;;5059618;28;20373;-92
2023/09/22 00:22:42;;;;;;;;;;;18.10;99.90;;;;;;5058417;28;19916;-91
2023/09/22 00:25:09;;;;;;;;;;;18.10;99.90;;;;;;5058599;28;19909;-91
2023/09/22 00:27:38;;;;;;;;;;;18.10;99.90;;;;;;5058171;28;19913;-91
2023/09/22 00:30:05;;;;;;;;;;;18.10;99.90;;;;;;5058451;28;19905;-91
2023/09/22 00:32:31;;;;;;;;;;;18.00;99.90;;;;;;5058317;28;20290;-91
2023/09/22 00:34:57;;;;;;;;;;;18.00;99.90;;;;;;5058384;28;19912;-91
2023/09/22 00:37:23;;;;;;;;;;;18.00;99.90;;;;;;5058294;28;20377;-91
2023/09/22 00:39:49;;;;;;;;;;;18.00;99.90;;;;;;5058486;28;19928;-91
2023/09/22 00:42:16;;;;;;;;;;;17.90;99.90;;;;;;5057966;28;19913;-92
2023/09/22 00:44:41;;;;;;;;;;;18.00;99.90;;;;;;5059296;28;19948;-96
2023/09/22 00:47:09;;;;;;;;;;;17.90;99.90;;;;;;5059222;28;19920;-96
2023/09/22 00:49:36;;;;;;;;;;;17.90;99.90;;;;;;5059239;28;20341;-96
2023/09/22 00:52:02;;;;;;;;;;;17.90;99.90;;;;;;5060212;28;19909;-96
2023/09/22 00:54:28;;;;;;;;;;;17.80;99.90;;;;;;5060634;28;19980;-96
2023/09/22 00:56:54;;;;;;;;;;;17.80;99.90;;;;;;5059870;28;19909;-96
2023/09/22 00:59:22;;;;;;;;;;;17.90;99.90;;;;;;5044046;28;19948;-96
2023/09/22 01:01:48;;;;;;;;;;;17.80;99.90;;;;;;5023259;28;20389;-96
2023/09/22 01:04:14;;;;;;;;;;;17.90;99.90;;;;;;5022628;28;19916;-96
2023/09/22 01:06:42;;;;;;;;;;;17.80;99.90;;;;;;5038409;28;19909;-96
2023/09/22 01:09:11;;;;;;;;;;;17.70;99.90;;;;;;5022786;28;20320;-96
2023/09/22 01:11:40;;;;;;;;;;;17.70;99.90;;;;;;5023240;28;19959;-96
2023/09/22 01:14:06;;;;;;;;;;;17.60;99.90;;;;;;5021336;28;19916;-93
2023/09/22 01:16:32;;;;;;;;;;;17.60;99.90;;;;;;5021134;28;19909;-92
2023/09/22 01:18:58;;;;;;;;;;;17.60;99.90;;;;;;5020533;28;20350;-93
2023/09/22 01:21:34;;;;;;;;;;;17.50;99.90;;;;;;5021132;28;19913;-92
2023/09/22 01:24:00;;;;;;;;;;;17.60;99.90;;;;;;5037724;28;19909;-93
2023/09/22 01:26:29;;;;;;;;;;;17.70;99.90;;;;;;5020940;28;19920;-92
2023/09/22 01:28:56;;;;;;;;;;;17.60;99.90;;;;;;5021165;28;19916;-93
2023/09/22 01:31:23;;;;;;;;;;;17.60;99.90;;;;;;5020992;28;20290;-92
2023/09/22 01:33:48;;;;;;;;;;;17.50;99.90;;;;;;5020900;28;19905;-92
2023/09/22 01:39:50;;;;;;;;;;;17.40;99.90;;;;;;5038688;28;19931;-93
2023/09/22 01:42:16;;;;;;;;;;;17.40;99.90;;;;;;5020806;28;20351;-93
2023/09/22 01:44:43;;;;;;;;;;;17.40;99.90;;;;;;5020393;28;20003;-92
2023/09/22 01:50:44;;;;;;;;;;;17.40;99.90;;;;;;5038372;28;19948;-92
2023/09/22 01:53:10;;;;;;;;;;;17.40;99.90;;;;;;5020818;28;19935;-93
2023/09/22 01:55:39;;;;;;;;;;;17.30;99.90;;;;;;5037247;28;19986;-93
2023/09/22 01:58:14;;;;;;;;;;;17.30;99.90;;;;;;5024979;28;19942;-92
2023/09/22 02:00:41;;;;;;;;;;;17.30;99.90;;;;;;5057062;28;19931;-93
2023/09/22 02:03:29;;;;;;;;;;;17.20;99.90;;;;;;5015165;28;19917;-93
2023/09/22 02:05:58;;;;;;;;;;;17.20;99.90;;;;;;5019993;23;19920;-65
2023/09/22 02:08:25;;;;;;;;;;;17.10;99.90;;;;;;5056945;28;19962;-65
2023/09/22 02:10:52;;;;;;;;;;;17.00;99.90;;;;;;5056806;28;19913;-65
2023/09/22 02:13:23;;;;;;;;;;;17.00;99.90;;;;;;5056280;28;19912;-65
2023/09/22 02:16:07;;;;;;;;;;;17.00;99.90;;;;;;5056758;28;19936;-65
2023/09/22 02:18:33;;;;;;;;;;;17.00;99.90;;;;;;5056430;28;19909;-65
2023/09/22 02:21:00;;;;;;;;;;;16.90;99.90;;;;;;5056655;28;20358;-65
2023/09/22 02:23:26;;;;;;;;;;;16.80;99.90;;;;;;5056575;28;19913;-65
2023/09/22 02:28:37;;;;;;;;;;;16.80;99.90;;;;;;5054872;28;19909;-64
2023/09/22 02:31:03;;;;;;;;;;;16.70;99.90;;;;;;5038144;28;19955;-65
2023/09/22 02:33:34;;;;;;;;;;;16.70;99.90;;;;;;5038201;28;20300;-65
2023/09/22 02:36:21;;;;;;;;;;;16.70;99.90;;;;;;5055157;28;20004;-65
2023/09/22 02:38:50;;;;;;;;;;;16.70;99.90;;;;;;5056424;28;19952;-65
2023/09/22 02:41:17;;;;;;;;;;;16.60;99.90;;;;;;5056313;28;20424;-65
2023/09/22 02:43:46;;;;;;;;;;;16.60;99.90;;;;;;5056160;28;19948;-65
2023/09/22 02:46:14;;;;;;;;;;;16.60;99.90;;;;;;5056021;28;20018;-65
2023/09/22 02:48:40;;;;;;;;;;;16.70;99.90;;;;;;5054743;28;20246;-65
2023/09/22 02:51:15;;;;;;;;;;;16.70;99.90;;;;;;5056227;28;19912;-65
2023/09/22 02:53:50;;;;;;;;;;;16.80;99.90;;;;;;5056117;28;19959;-65
2023/09/22 02:56:16;;;;;;;;;;;16.90;99.90;;;;;;5055795;28;19909;-65
2023/09/22 02:58:45;;;;;;;;;;;16.70;99.90;;;;;;5065631;28;19912;-65
2023/09/22 03:01:20;;;;;;;;;;;16.70;99.90;;;;;;5074661;28;19930;-65
2023/09/22 03:03:47;;;;;;;;;;;16.60;99.90;;;;;;5075706;28;20238;-65
2023/09/22 03:06:18;;;;;;;;;;;16.60;99.90;;;;;;5057690;28;19912;-65
2023/09/22 03:08:47;;;;;;;;;;;16.60;99.90;;;;;;5075961;28;19908;-65
2023/09/22 03:11:13;;;;;;;;;;;16.60;99.90;;;;;;5057665;28;19916;-65
2023/09/22 03:13:38;;;;;;;;;;;16.60;99.90;;;;;;5075717;28;20049;-65
2023/09/22 03:16:09;;;;;;;;;;;16.50;99.90;;;;;;5075764;28;19908;-65
2023/09/22 03:18:35;;;;;;;;;;;16.50;99.90;;;;;;5074329;28;19908;-65
2023/09/22 03:21:03;;;;;;;;;;;16.60;99.90;;;;;;5075807;28;19908;-65
2023/09/22 03:23:28;;;;;;;;;;;16.50;99.90;;;;;;5074464;28;19930;-65
2023/09/22 03:25:54;;;;;;;;;;;16.50;99.90;;;;;;5075323;28;20277;-65
2023/09/22 03:28:20;;;;;;;;;;;16.50;99.90;;;;;;5074345;28;19957;-65
2023/09/22 03:30:48;;;;;;;;;;;16.40;99.90;;;;;;5074493;28;19923;-65
2023/09/22 03:33:13;;;;;;;;;;;16.40;99.90;;;;;;5075657;28;19967;-65
2023/09/22 03:35:40;;;;;;;;;;;16.40;99.90;;;;;;5075767;28;19909;-65
2023/09/22 03:38:09;;;;;;;;;;;16.40;99.90;;;;;;5057464;28;20028;-65
2023/09/22 03:40:41;;;;;;;;;;;16.40;99.90;;;;;;5058267;28;19908;-65
2023/09/22 03:43:08;;;;;;;;;;;16.40;99.90;;;;;;5078279;28;19915;-65
2023/09/22 03:45:34;;;;;;;;;;;16.40;99.90;;;;;;5061574;28;19916;-64
2023/09/22 03:48:00;;;;;;;;;;;16.40;99.90;;;;;;5061462;28;20285;-65
2023/09/22 03:50:26;;;;;;;;;;;16.40;99.90;;;;;;5079548;28;19908;-64
2023/09/22 03:52:52;;;;;;;;;;;16.40;99.90;;;;;;5079293;28;19919;-64
2023/09/22 03:55:19;;;;;;;;;;;16.30;99.90;;;;;;5077963;28;19953;-65
2023/09/22 03:57:45;;;;;;;;;;;16.40;99.90;;;;;;5077423;28;19909;-65
2023/09/22 04:00:18;;;;;;;;;;;16.30;99.90;;;;;;5041532;28;19954;-64
2023/09/22 04:02:44;;;;;;;;;;;16.30;99.90;;;;;;5041123;28;20265;-64
2023/09/22 04:05:13;;;;;;;;;;;16.40;99.90;;;;;;5041243;28;19974;-65
2023/09/22 04:07:39;;;;;;;;;;;16.40;99.90;;;;;;5040942;28;19968;-65
2023/09/22 04:10:07;;;;;;;;;;;16.40;99.90;;;;;;5058869;28;19909;-65
2023/09/22 04:12:33;;;;;;;;;;;16.40;99.90;;;;;;5041091;28;20361;-65
2023/09/22 04:14:59;;;;;;;;;;;16.40;99.90;;;;;;5059122;28;19909;-64
2023/09/22 04:17:25;;;;;;;;;;;16.40;99.90;;;;;;5058677;28;20254;-64
2023/09/22 04:19:51;;;;;;;;;;;16.30;99.90;;;;;;5058935;28;19958;-64
2023/09/22 04:22:18;;;;;;;;;;;16.30;99.90;;;;;;5058960;28;19954;-65
2023/09/22 04:24:47;;;;;;;;;;;16.40;99.90;;;;;;5058494;28;19909;-65
2023/09/22 04:27:14;;;;;;;;;;;16.40;99.90;;;;;;5058768;28;19919;-65
2023/09/22 04:29:40;;;;;;;;;;;16.40;99.90;;;;;;5058876;28;20007;-64
2023/09/22 04:32:06;;;;;;;;;;;16.30;99.90;;;;;;5058441;28;20300;-65
2023/09/22 04:34:35;;;;;;;;;;;16.30;99.90;;;;;;5058691;28;20011;-64
2023/09/22 04:37:04;;;;;;;;;;;16.40;99.90;;;;;;5058433;28;19909;-64
2023/09/22 04:39:31;;;;;;;;;;;16.40;99.90;;;;;;5058445;28;19911;-64
2023/09/22 04:41:58;;;;;;;;;;;16.40;99.90;;;;;;5058576;28;19908;-65
2023/09/22 04:44:23;;;;;;;;;;;16.30;99.90;;;;;;5058463;28;19904;-65
2023/09/22 04:46:49;;;;;;;;;;;16.30;99.90;;;;;;5057985;28;19922;-65
2023/09/22 04:49:15;;;;;;;;;;;16.30;99.90;;;;;;5058422;28;19908;-65
2023/09/22 04:51:42;;;;;;;;;;;16.40;99.90;;;;;;5057538;28;19951;-64
2023/09/22 04:54:07;;;;;;;;;;;16.40;99.90;;;;;;5057424;28;20083;-65
2023/09/22 04:56:33;;;;;;;;;;;16.40;99.90;;;;;;5058327;28;20269;-65
2023/09/22 04:59:00;;;;;;;;;;;16.40;99.90;;;;;;5070271;28;20388;-65
2023/09/22 05:01:30;;;;;;;;;;;16.50;99.90;;;;;;5077864;28;19915;-65
2023/09/22 05:03:56;;;;;;;;;;;16.50;99.90;;;;;;5078155;28;20002;-65
2023/09/22 05:06:22;;;;;;;;;;;16.40;99.90;;;;;;5077770;28;19971;-65
2023/09/22 05:08:48;;;;;;;;;;;16.50;99.90;;;;;;5062286;28;20338;-65
2023/09/22 05:11:13;;;;;;;;;;;16.50;99.90;;;;;;5058346;28;19915;-65
2023/09/22 05:13:39;;;;;;;;;;;16.60;99.90;;;;;;5058271;28;19908;-65
2023/09/22 05:16:06;;;;;;;;;;;16.80;99.90;;;;;;5058097;28;19909;-65
2023/09/22 05:18:32;;;;;;;;;;;16.90;99.90;;;;;;5058050;28;19912;-65
2023/09/22 05:21:01;;;;;;;;;;;17.00;99.90;;;;;;5057920;28;19909;-65
2023/09/22 05:23:32;;;;;;;;;;;17.30;99.90;;;;;;5057572;28;20352;-65
2023/09/22 05:25:58;;;;;;;;;;;17.40;99.90;;;;;;5057330;28;19912;-65
2023/09/22 05:28:24;;;;;;;;;;;17.40;99.90;;;;;;5057053;28;19909;-65
2023/09/22 05:30:49;;;;;;;;;;;17.60;99.90;;;;;;5055968;28;19915;-65
2023/09/22 05:33:15;;;;;;;;;;;17.80;99.90;;;;;;5053303;28;19952;-65
2023/09/22 05:35:41;;;;;;;;;;;18.00;99.90;;;;;;5056819;28;20051;-65
2023/09/22 05:38:09;;;;;;;;;;;18.20;99.90;;;;;;5057263;28;19909;-65
2023/09/22 05:40:35;;;;;;;;;;;18.30;99.90;;;;;;5056835;28;19970;-65
2023/09/22 05:43:10;;;;;;;;;;;18.30;99.90;;;;;;5056684;28;19915;-65
2023/09/22 05:45:36;;;;;;;;;;;18.40;99.90;;;;;;5056968;28;20228;-65
2023/09/22 05:48:02;;;;;;;;;;;18.40;99.90;;;;;;5056367;28;20014;-65
2023/09/22 05:50:28;;;;;;;;;;;18.40;99.90;;;;;;5047248;28;19908;-65
2023/09/22 05:52:55;;;;;;;;;;;18.60;99.90;;;;;;5029578;28;19909;-65
2023/09/22 05:55:22;;;;;;;;;;;18.70;99.90;;;;;;5056096;28;19908;-65
2023/09/22 05:57:50;;;;;;;;;;;19.00;99.90;;;;;;5058690;28;19935;-65
2023/09/22 06:00:16;;;;;;;;;;;19.20;99.90;;;;;;5077020;28;20301;-65
2023/09/22 06:02:49;;;;;;;;;;;19.40;99.90;;;;;;5067121;28;19912;-65
2023/09/22 06:05:16;;;;;;;;;;;19.60;99.90;;;;;;5038513;28;19915;-65
2023/09/22 06:07:42;;;;;;;;;;;19.60;99.90;;;;;;5053982;28;19916;-64
2023/09/22 06:10:09;;;;;;;;;;;19.80;99.90;;;;;;5056439;28;19967;-65
2023/09/22 06:12:36;;;;;;;;;;;19.90;99.90;;;;;;5055856;28;19908;-65
2023/09/22 06:15:07;;;;;;;;;;;20.20;99.90;;;;;;5056354;28;19912;-65
2023/09/22 06:17:35;;;;;;;;;;;20.70;99.90;;;;;;5056122;28;20365;-65
2023/09/22 06:20:18;;;;;;;;;;;20.90;99.90;;;;;;5056620;28;19912;-65
2023/09/22 06:22:47;;;;;;;;;;;21.30;99.90;;;;;;5050233;28;19995;-65
2023/09/22 06:25:16;;;;;;;;;;;21.50;99.90;;;;;;5044428;28;19916;-65
2023/09/22 06:27:43;;;;;;;;;;;21.70;99.90;;;;;;5047426;28;19917;-65
2023/09/22 06:30:12;;;;;;;;;;;21.90;99.90;;;;;;5052983;28;19944;-65
2023/09/22 06:32:41;;;;;;;;;;;21.90;99.90;;;;;;5055273;28;19966;-65
2023/09/22 06:35:10;;;;;;;;;;;21.80;99.90;;;;;;5055736;28;19947;-65
2023/09/22 06:37:41;;;;;;;;;;;21.70;99.90;;;;;;5055740;28;19948;-65
2023/09/22 06:40:11;;;;;;;;;;;21.70;99.90;;;;;;5056007;28;20354;-65
2023/09/22 06:42:41;;;;;;;;;;;21.80;99.90;;;;;;5055388;28;19909;-65
2023/09/22 06:45:10;;;;;;;;;;;21.90;99.90;;;;;;5055713;28;19909;-65
2023/09/22 06:47:43;;;;;;;;;;;22.00;99.90;;;;;;5055601;28;19913;-65
2023/09/22 06:50:11;;;;;;;;;;;22.10;99.90;;;;;;5056023;28;19912;-65
2023/09/22 06:52:40;;;;;;;;;;;22.20;99.90;;;;;;5055139;28;19939;-65
2023/09/22 06:55:08;;;;;;;;;;;23.00;99.90;;;;;;5056234;28;19915;-65
2023/09/22 06:57:36;;;;;;;;;;;23.60;99.40;;;;;;5055850;28;19939;-65
2023/09/22 07:00:15;;;;;;;;;;;23.30;99.40;;;;;;5075673;28;19909;-65
2023/09/22 07:02:42;;;;;;;;;;;24.00;97.10;;;;;;5057478;28;19931;-65
2023/09/22 07:05:09;;;;;;;;;;;24.40;95.40;;;;;;5055471;28;19909;-66
2023/09/22 07:07:37;;;;;;;;;;;25.00;93.60;;;;;;5055637;28;19916;-66
2023/09/22 07:10:04;;;;;;;;;;;25.10;93.80;;;;;;5055710;28;19963;-65
2023/09/22 07:12:30;;;;;;;;;;;25.70;91.20;;;;;;5055705;28;19908;-66
2023/09/22 07:14:56;;;;;;;;;;;26.30;90.90;;;;;;5055677;28;20254;-66
2023/09/22 07:17:22;;;;;;;;;;;26.60;86.60;;;;;;5055783;28;19913;-66
2023/09/22 07:19:47;;;;;;;;;;;27.00;84.40;;;;;;5055996;28;20285;-66
2023/09/22 07:22:13;;;;;;;;;;;27.80;81.00;;;;;;5055354;28;19913;-66
2023/09/22 07:24:39;;;;;;;;;;;28.10;77.30;;;;;;5054895;28;19916;-66
2023/09/22 07:27:06;;;;;;;;;;;28.40;74.90;;;;;;5053846;28;20345;-66
2023/09/22 07:29:32;;;;;;;;;;;28.50;72.30;;;;;;5033832;28;20389;-66
2023/09/22 07:31:58;;;;;;;;;;;28.60;72.40;;;;;;5051525;28;19963;-66
2023/09/22 07:34:24;;;;;;;;;;;29.20;69.20;;;;;;5055354;28;19909;-66
2023/09/22 07:36:49;;;;;;;;;;;29.40;66.70;;;;;;5054118;28;19916;-66
2023/09/22 07:39:15;;;;;;;;;;;29.60;64.60;;;;;;5055483;28;20407;-66
2023/09/22 07:41:42;;;;;;;;;;;29.90;63.20;;;;;;5044425;28;20270;-66
2023/09/22 07:44:08;;;;;;;;;;;30.50;59.20;;;;;;5055110;28;19955;-67
2023/09/22 07:46:33;;;;;;;;;;;30.70;59.30;;;;;;5054440;28;19912;-67
2023/09/22 07:48:59;;;;;;;;;;;31.00;58.40;;;;;;5055059;28;19915;-67
2023/09/22 07:51:27;;;;;;;;;;;31.30;55.10;;;;;;5055161;28;20025;-67
2023/09/22 07:53:53;;;;;;;;;;;31.10;52.70;;;;;;5054996;28;19913;-67
2023/09/22 07:56:19;;;;;;;;;;;31.40;51.40;;;;;;5037617;28;19908;-66
2023/09/22 07:58:45;;;;;;;;;;;30.70;50.30;;;;;;5055185;28;19995;-66
2023/09/22 08:01:16;;;;;;;;;;;30.30;52.00;;;;;;5054875;28;20008;-66
2023/09/22 08:03:45;;;;;;;;;;;30.10;50.80;;;;;;5055326;28;19999;-67
2023/09/22 08:06:11;;;;;;;;;;;30.20;52.10;;;;;;5054863;28;19913;-67
2023/09/22 08:08:37;;;;;;;;;;;30.50;51.50;;;;;;5054986;28;20003;-66
2023/09/22 08:11:04;;;;;;;;;;;31.30;47.40;;;;;;5054929;28;19956;-66
2023/09/22 08:13:33;;;;;;;;;;;31.80;46.60;;;;;;5054302;28;20370;-67
2023/09/22 08:15:59;;;;;;;;;;;32.20;47.30;;;;;;5035957;28;19909;-67
2023/09/22 08:18:25;;;;;;;;;;;32.30;45.90;;;;;;5035204;28;20086;-67
2023/09/22 08:20:53;;;;;;;;;;;32.90;45.10;;;;;;5034858;28;19909;-67
2023/09/22 08:23:19;;;;;;;;;;;32.80;40.40;;;;;;5034579;28;19916;-67
2023/09/22 08:25:49;;;;;;;;;;;32.80;40.30;;;;;;5034958;28;19909;-67
2023/09/22 08:28:15;;;;;;;;;;;33.40;40.20;;;;;;5038035;28;19916;-67
2023/09/22 08:30:41;;;;;;;;;;;33.60;38.70;;;;;;5036971;28;19920;-68
2023/09/22 08:33:10;;;;;;;;;;;33.40;37.40;;;;;;5037175;28;19944;-68
2023/09/22 08:35:37;;;;;;;;;;;33.80;40.40;;;;;;5057779;28;19908;-67
2023/09/22 08:38:04;;;;;;;;;;;34.00;37.80;;;;;;5056423;28;20273;-67
2023/09/22 08:40:30;;;;;;;;;;;33.50;36.50;;;;;;5058231;28;19909;-67
2023/09/22 08:42:57;;;;;;;;;;;32.50;36.60;;;;;;5056739;28;19915;-67
2023/09/22 08:45:23;;;;;;;;;;;33.20;36.40;;;;;;5045969;28;19908;-67
2023/09/22 08:47:50;;;;;;;;;;;32.70;37.30;;;;;;5057314;28;20279;-67
2023/09/22 08:50:17;;;;;;;;;;;33.60;36.20;;;;;;5056170;28;19909;-67
2023/09/22 08:52:43;;;;;;;;;;;34.50;36.50;;;;;;5056606;28;19917;-67
2023/09/22 08:55:14;;;;;;;;;;;34.90;33.30;;;;;;5057528;28;19909;-67
2023/09/22 08:57:44;;;;;;;;;;;34.90;34.10;;;;;;5055306;28;19908;-67
2023/09/22 09:00:18;;;;;;;;;;;35.30;33.40;;;;;;5046459;28;19913;-68
2023/09/22 09:02:46;;;;;;;;;;;34.70;32.20;;;;;;5055857;28;20346;-66
2023/09/22 09:05:21;;;;;;;;;;;34.40;32.20;;;;;;5037802;28;20423;-68
2023/09/22 09:07:47;;;;;;;;;;;33.40;33.40;;;;;;5056546;28;20354;-67
2023/09/22 09:10:26;;;;;;;;;;;34.50;32.70;;;;;;5048320;28;19962;-68
2023/09/22 09:12:53;;;;;;;;;;;35.10;31.10;;;;;;5045750;28;20324;-68
2023/09/22 09:15:25;;;;;;;;;;;34.40;31.90;;;;;;5048163;28;19954;-68
2023/09/22 09:18:03;;;;;;;;;;;33.20;34.10;;;;;;5041072;28;20273;-68
2023/09/22 09:20:35;;;;;;;;;;;34.00;31.70;;;;;;5044841;28;19909;-68
2023/09/22 09:23:22;;;;;;;;;;;34.80;31.60;;;;;;5030568;28;19962;-68
2023/09/22 09:25:55;;;;;;;;;;;35.40;31.00;;;;;;5054872;28;20047;-68
2023/09/22 09:28:22;;;;;;;;;;;35.60;30.00;;;;;;5057276;28;19908;-68
2023/09/22 09:30:52;;;;;;;;;;;34.60;31.20;;;;;;5057371;28;19904;-68
2023/09/22 09:33:22;;;;;;;;;;;35.00;29.90;;;;;;5057518;28;19916;-68
2023/09/22 09:35:48;;;;;;;;;;;35.00;30.10;;;;;;5057158;28;20285;-68
2023/09/22 09:38:14;;;;;;;;;;;35.80;30.00;;;;;;5056673;28;19909;-68
2023/09/22 09:40:41;;;;;;;;;;;36.20;28.50;;;;;;5057466;28;19909;-68
2023/09/22 09:43:12;;;;;;;;;;;35.50;28.70;;;;;;5038664;28;19924;-68
2023/09/22 09:45:43;;;;;;;;;;;36.00;29.50;;;;;;5056991;28;19908;-68
2023/09/22 09:48:15;;;;;;;;;;;36.30;27.90;;;;;;5057051;28;19939;-68
2023/09/22 09:50:44;;;;;;;;;;;36.80;28.20;;;;;;5057015;28;19909;-68
2023/09/22 09:53:36;;;;;;;;;;;37.20;27.30;;;;;;5056687;28;20003;-68
2023/09/22 09:56:02;;;;;;;;;;;37.60;27.40;;;;;;5052688;28;20014;-69
2023/09/22 09:58:32;;;;;;;;;;;35.40;27.80;;;;;;5055529;28;19916;-68
2023/09/22 10:01:00;;;;;;;;;;;35.40;28.40;;;;;;5056434;28;19909;-69
2023/09/22 10:03:27;;;;;;;;;;;36.20;27.50;;;;;;5056669;28;19962;-68
2023/09/22 10:05:56;;;;;;;;;;;36.30;28.90;;;;;;5056249;28;19912;-68
2023/09/22 10:08:23;;;;;;;;;;;37.10;27.50;;;;;;5056975;28;19913;-68
2023/09/22 10:10:51;;;;;;;;;;;37.10;27.30;;;;;;5056771;28;19915;-68
2023/09/22 10:13:17;;;;;;;;;;;36.50;26.50;;;;;;5055622;28;19962;-69
2023/09/22 10:16:05;;;;;;;;;;;36.40;26.80;;;;;;5056774;28;19913;-68
2023/09/22 10:18:50;;;;;;;;;;;35.30;27.80;;;;;;5053475;28;19916;-68
2023/09/22 10:21:29;;;;;;;;;;;35.20;28.40;;;;;;5056287;28;19940;-68
2023/09/22 10:24:14;;;;;;;;;;;35.10;29.20;;;;;;5056397;28;19955;-68
2023/09/22 10:26:56;;;;;;;;;;;33.60;30.20;;;;;;5038985;28;19963;-68
2023/09/22 10:29:36;;;;;;;;;;;34.30;29.80;;;;;;5034165;28;19963;-68
2023/09/22 10:32:32;;;;;;;;;;;35.00;30.20;;;;;;5034088;28;19929;-68
2023/09/22 10:35:03;;;;;;;;;;;36.20;27.80;;;;;;5016616;28;19959;-68
2023/09/22 10:37:32;;;;;;;;;;;36.10;27.80;;;;;;5037425;28;19917;-68
2023/09/22 10:40:08;;;;;;;;;;;36.10;28.00;;;;;;5036260;28;19909;-68
2023/09/22 10:42:46;;;;;;;;;;;36.30;27.30;;;;;;5035752;28;19931;-68
2023/09/22 10:45:12;;;;;;;;;;;37.00;27.30;;;;;;5036079;28;19931;-69
2023/09/22 10:47:42;;;;;;;;;;;36.70;25.40;;;;;;5034573;28;19919;-68
2023/09/22 10:50:19;;;;;;;;;;;35.30;27.50;;;;;;5037245;28;19909;-68
2023/09/22 10:52:52;;;;;;;;;;;36.00;27.50;;;;;;5056788;28;19916;-68
2023/09/22 10:55:34;;;;;;;;;;;35.60;26.50;;;;;;5056152;28;20447;-68
2023/09/22 10:58:03;;;;;;;;;;;35.40;26.50;;;;;;5055372;28;19915;-68
2023/09/22 11:00:31;;;;;;;;;;;35.50;27.20;;;;;;5055842;28;19909;-68
2023/09/22 11:03:10;;;;;;;;;;;35.60;27.10;;;;;;5055676;28;20019;-68
2023/09/22 11:05:37;;;;;;;;;;;35.80;26.20;;;;;;5055338;28;19909;-68
2023/09/22 11:08:21;;;;;;;;;;;36.50;26.30;;;;;;5055035;28;19955;-68
2023/09/22 11:10:47;;;;;;;;;;;36.50;24.70;;;;;;5055893;28;19919;-68
2023/09/22 11:13:14;;;;;;;;;;;36.70;24.90;;;;;;5055349;28;19912;-68
2023/09/22 11:15:50;;;;;;;;;;;37.00;26.00;;;;;;5055831;28;19915;-68
2023/09/22 11:18:26;;;;;;;;;;;37.10;24.70;;;;;;5055826;28;19916;-68
2023/09/22 11:20:56;;;;;;;;;;;37.80;24.10;;;;;;5055441;28;20424;-68
2023/09/22 11:23:22;;;;;;;;;;;38.30;23.60;;;;;;5055275;28;19909;-68
2023/09/22 11:26:08;;;;;;;;;;;38.20;23.10;;;;;;5055555;28;19909;-68
2023/09/22 11:28:36;;;;;;;;;;;38.20;24.30;;;;;;5055391;28;19931;-68
2023/09/22 11:31:08;;;;;;;;;;;38.30;23.60;;;;;;5055385;28;19920;-68
2023/09/22 11:33:36;;;;;;;;;;;38.60;23.10;;;;;;5055321;28;19908;-68
2023/09/22 11:36:03;;;;;;;;;;;38.80;22.40;;;;;;5055467;28;19909;-69
2023/09/22 11:38:29;;;;;;;;;;;38.00;22.20;;;;;;5055064;28;20372;-68
2023/09/22 11:41:02;;;;;;;;;;;36.90;23.20;;;;;;5055368;28;19991;-68
2023/09/22 11:43:28;;;;;;;;;;;37.30;22.90;;;;;;5055236;28;19909;-69
2023/09/22 11:46:04;;;;;;;;;;;37.00;24.20;;;;;;5055328;28;19905;-68
2023/09/22 11:48:30;;;;;;;;;;;36.10;24.70;;;;;;5054998;28;19909;-68
2023/09/22 11:50:56;;;;;;;;;;;35.70;25.40;;;;;;5055118;28;19908;-68
2023/09/22 11:53:22;;;;;;;;;;;35.50;25.80;;;;;;5055393;28;19943;-68
2023/09/22 11:55:48;;;;;;;;;;;35.50;25.70;;;;;;5055634;28;19987;-68
2023/09/22 11:58:14;;;;;;;;;;;36.00;24.50;;;;;;5061454;28;19966;-68
2023/09/22 12:00:42;;;;;;;;;;;36.10;24.20;;;;;;5060691;28;19975;-69
2023/09/22 12:03:09;;;;;;;;;;;36.10;24.60;;;;;;5058355;28;19962;-68
2023/09/22 12:05:38;;;;;;;;;;;35.80;24.90;;;;;;5058914;28;19913;-67
2023/09/22 12:08:05;;;;;;;;;;;35.00;26.60;;;;;;5058887;28;20354;-68
2023/09/22 12:10:31;;;;;;;;;;;34.90;26.20;;;;;;5058666;28;19957;-67
2023/09/22 12:12:57;;;;;;;;;;;34.80;26.90;;;;;;5058609;28;20372;-67
2023/09/22 12:15:23;;;;;;;;;;;34.50;27.20;;;;;;5058466;28;20366;-67
2023/09/22 12:17:49;;;;;;;;;;;34.30;26.90;;;;;;5058592;28;20362;-67
2023/09/22 12:20:16;;;;;;;;;;;33.90;27.00;;;;;;5058448;28;20346;-67
2023/09/22 12:22:42;;;;;;;;;;;34.10;27.40;;;;;;5058750;28;19915;-68
2023/09/22 12:25:08;;;;;;;;;;;34.60;27.20;;;;;;5058633;28;19908;-68
2023/09/22 12:27:34;;;;;;;;;;;34.80;25.10;;;;;;5057957;28;20293;-68
2023/09/22 12:30:00;;;;;;;;;;;35.10;25.20;;;;;;5058430;28;19911;-68
2023/09/22 12:32:25;;;;;;;;;;;35.50;26.00;;;;;;5058223;28;20278;-68
2023/09/22 12:34:52;;;;;;;;;;;35.90;24.70;;;;;;5058613;28;19916;-68
2023/09/22 12:37:18;;;;;;;;;;;36.30;24.20;;;;;;5058333;28;19915;-68
2023/09/22 12:39:44;;;;;;;;;;;36.30;24.10;;;;;;5058531;28;19905;-68
2023/09/22 12:42:10;;;;;;;;;;;36.40;23.60;;;;;;5057352;28;20280;-68
2023/09/22 12:44:37;;;;;;;;;;;36.70;24.90;;;;;;5057819;28;19915;-68
2023/09/22 12:47:03;;;;;;;;;;;37.10;23.60;;;;;;5058446;28;20289;-68
2023/09/22 12:49:29;;;;;;;;;;;37.40;22.50;;;;;;5057975;28;19909;-68
2023/09/22 12:51:55;;;;;;;;;;;37.60;22.80;;;;;;5040498;28;19927;-68
2023/09/22 12:54:20;;;;;;;;;;;37.50;23.00;;;;;;5058229;28;19909;-68
2023/09/22 12:56:46;;;;;;;;;;;36.80;22.30;;;;;;5057749;28;19909;-68
2023/09/22 12:59:12;;;;;;;;;;;36.50;23.20;;;;;;5057790;28;19916;-69
2023/09/22 13:01:38;;;;;;;;;;;36.70;23.40;;;;;;5058465;28;19916;-68
2023/09/22 13:04:04;;;;;;;;;;;36.40;23.60;;;;;;5057561;28;19915;-67
2023/09/22 13:06:30;;;;;;;;;;;36.20;23.40;;;;;;5057426;28;19942;-67
2023/09/22 13:08:55;;;;;;;;;;;35.80;23.40;;;;;;5057697;28;19932;-67
2023/09/22 13:11:21;;;;;;;;;;;34.90;24.50;;;;;;5057702;28;19913;-68
2023/09/22 13:13:47;;;;;;;;;;;35.00;23.60;;;;;;5056201;28;19942;-68
2023/09/22 13:16:14;;;;;;;;;;;35.10;23.80;;;;;;5057650;28;19919;-67
2023/09/22 13:18:39;;;;;;;;;;;34.20;23.40;;;;;;5056280;28;19909;-68
2023/09/22 13:21:15;;;;;;;;;;;34.20;23.80;;;;;;5057491;28;19909;-68
2023/09/22 13:23:42;;;;;;;;;;;34.30;24.60;;;;;;5057519;28;20457;-68
2023/09/22 13:26:07;;;;;;;;;;;34.30;25.10;;;;;;5057174;28;20389;-68
2023/09/22 13:28:33;;;;;;;;;;;34.40;25.10;;;;;;5057693;28;19909;-68
2023/09/22 13:30:59;;;;;;;;;;;34.60;24.90;;;;;;5057606;28;19904;-68
2023/09/22 13:33:28;;;;;;;;;;;34.80;24.00;;;;;;5056940;28;19916;-68
2023/09/22 13:35:55;;;;;;;;;;;35.10;24.50;;;;;;5057209;28;19909;-68
2023/09/22 13:38:21;;;;;;;;;;;35.20;24.00;;;;;;5057285;28;19909;-68
2023/09/22 13:40:47;;;;;;;;;;;35.40;23.80;;;;;;5057103;28;20384;-68
2023/09/22 13:43:16;;;;;;;;;;;35.50;22.50;;;;;;5057338;28;19920;-68
2023/09/22 13:45:42;;;;;;;;;;;35.00;23.30;;;;;;5057214;28;19905;-68
2023/09/22 13:48:09;;;;;;;;;;;35.10;22.00;;;;;;5056782;28;19919;-68
2023/09/22 13:50:35;;;;;;;;;;;35.10;22.60;;;;;;5057866;28;19916;-67
2023/09/22 13:53:01;;;;;;;;;;;34.60;23.00;;;;;;5057749;28;19909;-68
2023/09/22 13:55:27;;;;;;;;;;;34.70;24.10;;;;;;5057155;28;19905;-68
2023/09/22 13:57:53;;;;;;;;;;;34.80;23.30;;;;;;5057115;28;19966;-68
2023/09/22 14:00:20;;;;;;;;;;;34.50;23.80;;;;;;5057213;28;19913;-67
2023/09/22 14:02:46;;;;;;;;;;;34.50;24.10;;;;;;5057104;28;19909;-68
2023/09/22 14:05:11;;;;;;;;;;;34.00;24.80;;;;;;5056996;28;19916;-67
2023/09/22 14:07:38;;;;;;;;;;;33.80;25.10;;;;;;5056940;28;19913;-68
2023/09/22 14:10:07;;;;;;;;;;;33.60;24.60;;;;;;5057659;28;19916;-68
2023/09/22 14:12:33;;;;;;;;;;;33.30;25.00;;;;;;5056665;28;20286;-67
2023/09/22 14:14:59;;;;;;;;;;;33.20;25.50;;;;;;5056812;28;19909;-67
2023/09/22 14:17:24;;;;;;;;;;;32.90;25.80;;;;;;5038932;28;19908;-67
2023/09/22 14:19:50;;;;;;;;;;;32.60;26.30;;;;;;5056667;28;19917;-67
2023/09/22 14:22:16;;;;;;;;;;;32.50;26.60;;;;;;5056784;28;20251;-67
2023/09/22 14:24:43;;;;;;;;;;;32.30;27.40;;;;;;5056467;28;19909;-67
2023/09/22 14:27:09;;;;;;;;;;;31.90;28.20;;;;;;5056526;28;19960;-67
2023/09/22 14:29:35;;;;;;;;;;;31.80;28.30;;;;;;5056604;28;19909;-67
2023/09/22 14:32:01;;;;;;;;;;;31.50;29.00;;;;;;5056559;28;19908;-67
2023/09/22 14:34:26;;;;;;;;;;;31.40;29.20;;;;;;5056338;28;19908;-66
2023/09/22 14:36:52;;;;;;;;;;;31.30;29.40;;;;;;5056503;28;19919;-67